UAL2154 KDEN-KTUL
Flight info
| Callsign | UAL2154 |
|---|---|
| Flight time | 0h 54m |
| Altitude | 37000 |
| Route | EPKEE7 GAETR KK51A TUL |
| Aircraft | A319/M-SDE3FGHIRWY/LB1 |
Departure
| Time | 2026-05-08 02:05 |
|---|---|
| Airport | Denver International Airport (KDEN) |
Arrival
| Time | 2026-05-08 02:59 |
|---|---|
| Airport | Tulsa International Airport (KTUL) |
| Time | Latitude | Longitude | Altitude | Speed | Heading |
|---|---|---|---|---|---|
| 2026-05-08 01:35 | 39.85808 | -104.67900 | 5378 ft | 0 kts | 359° |
| 2026-05-08 01:51 | 39.85806 | -104.67900 | 5376 ft | 3 kts | 359° |
| 2026-05-08 01:51 | 39.85787 | -104.67900 | 5377 ft | 3 kts | 359° |
| 2026-05-08 01:51 | 39.85769 | -104.67899 | 5378 ft | 3 kts | 359° |
| 2026-05-08 01:51 | 39.85751 | -104.67899 | 5376 ft | 3 kts | 359° |
| 2026-05-08 01:52 | 39.85732 | -104.67899 | 5377 ft | 3 kts | 359° |
| 2026-05-08 01:52 | 39.85719 | -104.67899 | 5378 ft | 0 kts | 359° |
| 2026-05-08 01:54 | 39.85720 | -104.67899 | 5377 ft | 1 kts | 359° |
| 2026-05-08 01:55 | 39.85729 | -104.67893 | 5379 ft | 2 kts | 30° |
| 2026-05-08 01:55 | 39.85731 | -104.67865 | 5380 ft | 5 kts | 107° |
| 2026-05-08 01:55 | 39.85713 | -104.67814 | 5378 ft | 7 kts | 118° |
| 2026-05-08 01:55 | 39.85685 | -104.67754 | 5380 ft | 8 kts | 120° |
| 2026-05-08 01:56 | 39.85666 | -104.67675 | 5381 ft | 10 kts | 93° |
| 2026-05-08 01:56 | 39.85668 | -104.67577 | 5381 ft | 12 kts | 89° |
| 2026-05-08 01:56 | 39.85665 | -104.67460 | 5381 ft | 14 kts | 93° |
| 2026-05-08 01:56 | 39.85663 | -104.67372 | 5381 ft | 15 kts | 91° |
| 2026-05-08 01:57 | 39.85664 | -104.67224 | 5381 ft | 17 kts | 89° |
| 2026-05-08 01:57 | 39.85664 | -104.67060 | 5381 ft | 19 kts | 90° |
| 2026-05-08 01:57 | 39.85665 | -104.66887 | 5381 ft | 20 kts | 89° |
| 2026-05-08 01:57 | 39.85663 | -104.66740 | 5381 ft | 10 kts | 99° |
| 2026-05-08 01:58 | 39.85663 | -104.66736 | 5381 ft | 10 kts | 98° |
| 2026-05-08 01:58 | 39.85658 | -104.66644 | 5381 ft | 11 kts | 92° |
| 2026-05-08 01:58 | 39.85664 | -104.66550 | 5381 ft | 7 kts | 72° |
| 2026-05-08 01:58 | 39.85679 | -104.66504 | 5378 ft | 3 kts | 73° |
| 2026-05-08 01:59 | 39.85680 | -104.66480 | 5382 ft | 2 kts | 91° |
| 2026-05-08 01:59 | 39.85680 | -104.66466 | 5382 ft | 1 kts | 92° |
| 2026-05-08 01:59 | 39.85680 | -104.66439 | 5383 ft | 5 kts | 89° |
| 2026-05-08 01:59 | 39.85680 | -104.66371 | 5386 ft | 10 kts | 90° |
| 2026-05-08 02:00 | 39.85688 | -104.66264 | 5390 ft | 14 kts | 63° |
| 2026-05-08 02:00 | 39.85794 | -104.66232 | 5388 ft | 20 kts | 1° |
| 2026-05-08 02:00 | 39.85939 | -104.66232 | 5388 ft | 22 kts | 1° |
| 2026-05-08 02:00 | 39.86097 | -104.66227 | 5385 ft | 24 kts | 0° |
| 2026-05-08 02:01 | 39.86276 | -104.66228 | 5382 ft | 19 kts | 0° |
| 2026-05-08 02:01 | 39.86400 | -104.66226 | 5382 ft | 18 kts | 1° |
| 2026-05-08 02:01 | 39.86535 | -104.66223 | 5379 ft | 20 kts | 0° |
| 2026-05-08 02:01 | 39.86682 | -104.66222 | 5378 ft | 22 kts | 359° |
| 2026-05-08 02:02 | 39.86850 | -104.66220 | 5370 ft | 26 kts | 1° |
| 2026-05-08 02:02 | 39.87039 | -104.66217 | 5367 ft | 28 kts | 1° |
| 2026-05-08 02:02 | 39.87244 | -104.66214 | 5364 ft | 31 kts | 0° |
| 2026-05-08 02:02 | 39.87414 | -104.66212 | 5361 ft | 23 kts | 0° |
| 2026-05-08 02:03 | 39.87546 | -104.66211 | 5362 ft | 11 kts | 0° |
| 2026-05-08 02:03 | 39.87626 | -104.66210 | 5362 ft | 12 kts | 0° |
| 2026-05-08 02:03 | 39.87712 | -104.66208 | 5362 ft | 13 kts | 1° |
| 2026-05-08 02:03 | 39.87756 | -104.66190 | 5361 ft | 6 kts | 53° |
| 2026-05-08 02:04 | 39.87756 | -104.66120 | 5360 ft | 11 kts | 90° |
| 2026-05-08 02:04 | 39.87754 | -104.65838 | 5356 ft | 56 kts | 91° |
| 2026-05-08 02:04 | 39.87747 | -104.65098 | 5349 ft | 108 kts | 90° |
| 2026-05-08 02:04 | 39.87737 | -104.63890 | 5331 ft | 159 kts | 91° |
| 2026-05-08 02:05 | 39.87729 | -104.62296 | 5605 ft | 178 kts | 89° |
| 2026-05-08 02:05 | 39.87742 | -104.60701 | 6315 ft | 177 kts | 87° |
| 2026-05-08 02:05 | 39.87548 | -104.59115 | 6802 ft | 185 kts | 108° |
| 2026-05-08 02:05 | 39.86992 | -104.57576 | 7215 ft | 194 kts | 114° |
| 2026-05-08 02:06 | 39.86415 | -104.55890 | 7415 ft | 213 kts | 112° |
| 2026-05-08 02:06 | 39.85805 | -104.54039 | 7649 ft | 232 kts | 111° |
| 2026-05-08 02:06 | 39.85152 | -104.51994 | 7815 ft | 259 kts | 111° |
| 2026-05-08 02:06 | 39.84427 | -104.49731 | 8145 ft | 283 kts | 112° |
| 2026-05-08 02:07 | 39.83633 | -104.47282 | 8609 ft | 302 kts | 112° |
| 2026-05-08 02:07 | 39.82800 | -104.44737 | 9382 ft | 309 kts | 112° |
| 2026-05-08 02:07 | 39.81944 | -104.42141 | 9853 ft | 315 kts | 112° |
| 2026-05-08 02:07 | 39.81076 | -104.39511 | 10004 ft | 320 kts | 113° |
| 2026-05-08 02:08 | 39.80152 | -104.36759 | 10211 ft | 343 kts | 114° |
| 2026-05-08 02:08 | 39.79156 | -104.33880 | 10750 ft | 353 kts | 114° |
| 2026-05-08 02:08 | 39.78132 | -104.30961 | 11443 ft | 357 kts | 114° |
| 2026-05-08 02:08 | 39.77092 | -104.28009 | 12163 ft | 361 kts | 114° |
| 2026-05-08 02:09 | 39.76043 | -104.25026 | 12883 ft | 365 kts | 114° |
| 2026-05-08 02:09 | 39.74983 | -104.21996 | 13600 ft | 369 kts | 114° |
| 2026-05-08 02:09 | 39.73422 | -104.17524 | 14565 ft | 374 kts | 115° |
| 2026-05-08 02:09 | 39.71268 | -104.11372 | 15744 ft | 383 kts | 115° |
| 2026-05-08 02:10 | 39.69008 | -104.04984 | 16945 ft | 392 kts | 115° |
| 2026-05-08 02:10 | 39.66720 | -103.98544 | 18111 ft | 401 kts | 115° |
| 2026-05-08 02:10 | 39.64273 | -103.91872 | 19181 ft | 409 kts | 117° |
| 2026-05-08 02:10 | 39.61576 | -103.85307 | 20312 ft | 415 kts | 119° |
| 2026-05-08 02:11 | 39.58923 | -103.78680 | 21384 ft | 421 kts | 111° |
| 2026-05-08 02:11 | 39.56877 | -103.71479 | 22425 ft | 427 kts | 109° |
| 2026-05-08 02:11 | 39.54855 | -103.64262 | 23434 ft | 434 kts | 109° |
| 2026-05-08 02:11 | 39.52746 | -103.56814 | 24278 ft | 441 kts | 109° |
| 2026-05-08 02:12 | 39.50607 | -103.49300 | 25096 ft | 447 kts | 109° |
| 2026-05-08 02:12 | 39.48462 | -103.41779 | 25873 ft | 453 kts | 109° |
| 2026-05-08 02:12 | 39.46248 | -103.34045 | 26580 ft | 460 kts | 110° |
| 2026-05-08 02:12 | 39.44000 | -103.26206 | 27323 ft | 466 kts | 110° |
| 2026-05-08 02:13 | 39.41751 | -103.18377 | 28056 ft | 472 kts | 110° |
| 2026-05-08 02:13 | 39.39446 | -103.10367 | 28814 ft | 478 kts | 110° |
| 2026-05-08 02:13 | 39.37098 | -103.02238 | 29535 ft | 483 kts | 110° |
| 2026-05-08 02:13 | 39.34921 | -102.93968 | 30190 ft | 488 kts | 102° |
| 2026-05-08 02:14 | 39.33840 | -102.85338 | 30770 ft | 492 kts | 97° |
| 2026-05-08 02:14 | 39.32769 | -102.76511 | 31365 ft | 496 kts | 97° |
| 2026-05-08 02:14 | 39.31678 | -102.67741 | 31913 ft | 500 kts | 97° |
| 2026-05-08 02:14 | 39.30570 | -102.58858 | 32748 ft | 497 kts | 97° |
| 2026-05-08 02:15 | 39.29469 | -102.50040 | 33578 ft | 496 kts | 97° |
| 2026-05-08 02:15 | 39.28386 | -102.41348 | 34331 ft | 494 kts | 97° |
| 2026-05-08 02:15 | 39.27286 | -102.32574 | 35023 ft | 493 kts | 97° |
| 2026-05-08 02:15 | 39.26178 | -102.23817 | 35630 ft | 493 kts | 98° |
| 2026-05-08 02:16 | 39.25061 | -102.15043 | 36154 ft | 493 kts | 98° |
| 2026-05-08 02:16 | 39.23951 | -102.06402 | 36713 ft | 493 kts | 99° |
| 2026-05-08 02:16 | 39.22808 | -101.97649 | 36915 ft | 492 kts | 99° |
| 2026-05-08 02:16 | 39.21679 | -101.88938 | 36923 ft | 490 kts | 99° |
| 2026-05-08 02:17 | 39.19424 | -101.71673 | 36927 ft | 491 kts | 99° |
| 2026-05-08 02:17 | 39.17110 | -101.54265 | 36914 ft | 493 kts | 99° |
| 2026-05-08 02:18 | 39.14780 | -101.36912 | 36897 ft | 493 kts | 99° |
| 2026-05-08 02:18 | 39.12408 | -101.19486 | 36892 ft | 494 kts | 99° |
| 2026-05-08 02:19 | 39.10020 | -101.02131 | 36914 ft | 495 kts | 100° |
| 2026-05-08 02:19 | 39.06916 | -100.84881 | 36871 ft | 491 kts | 123° |
| 2026-05-08 02:20 | 39.02347 | -100.78763 | 36958 ft | 477 kts | 151° |
| 2026-05-08 02:20 | 38.97405 | -100.72910 | 36945 ft | 487 kts | 134° |
| 2026-05-08 02:20 | 38.88755 | -100.59550 | 36906 ft | 488 kts | 133° |
| 2026-05-08 02:21 | 38.80125 | -100.46142 | 36886 ft | 488 kts | 134° |
| 2026-05-08 02:21 | 38.71411 | -100.32744 | 36885 ft | 487 kts | 134° |
| 2026-05-08 02:22 | 38.62771 | -100.19488 | 36891 ft | 485 kts | 134° |
| 2026-05-08 02:22 | 38.54113 | -100.06276 | 36872 ft | 486 kts | 134° |
| 2026-05-08 02:23 | 38.46097 | -99.92369 | 36838 ft | 490 kts | 127° |
| 2026-05-08 02:23 | 38.38595 | -99.77834 | 36892 ft | 491 kts | 128° |
| 2026-05-08 02:24 | 38.31060 | -99.63283 | 36895 ft | 492 kts | 127° |
| 2026-05-08 02:24 | 38.23486 | -99.48695 | 36889 ft | 492 kts | 128° |
| 2026-05-08 02:25 | 38.15955 | -99.34295 | 36900 ft | 491 kts | 129° |
| 2026-05-08 02:25 | 38.08363 | -99.19814 | 36897 ft | 491 kts | 129° |
| 2026-05-08 02:26 | 38.00785 | -99.05441 | 36909 ft | 491 kts | 129° |
| 2026-05-08 02:26 | 37.93189 | -98.91081 | 36912 ft | 493 kts | 129° |
| 2026-05-08 02:27 | 37.85551 | -98.76694 | 36887 ft | 493 kts | 130° |
| 2026-05-08 02:27 | 37.77859 | -98.62276 | 36943 ft | 492 kts | 130° |
| 2026-05-08 02:28 | 37.70205 | -98.48007 | 36927 ft | 492 kts | 130° |
| 2026-05-08 02:28 | 37.62526 | -98.33730 | 36879 ft | 491 kts | 131° |
| 2026-05-08 02:29 | 37.58213 | -98.25747 | 36883 ft | 492 kts | 131° |
| 2026-05-08 02:29 | 37.54349 | -98.18602 | 36885 ft | 492 kts | 131° |
| 2026-05-08 02:30 | 37.50487 | -98.11493 | 36893 ft | 492 kts | 131° |
| 2026-05-08 02:30 | 37.46610 | -98.04373 | 36899 ft | 493 kts | 131° |
| 2026-05-08 02:31 | 37.42737 | -97.97263 | 36880 ft | 492 kts | 132° |
| 2026-05-08 02:31 | 37.38887 | -97.90210 | 36901 ft | 493 kts | 132° |
| 2026-05-08 02:32 | 37.34991 | -97.83095 | 36602 ft | 497 kts | 132° |
| 2026-05-08 02:32 | 37.33043 | -97.79536 | 36271 ft | 494 kts | 132° |
| 2026-05-08 02:32 | 37.31100 | -97.75987 | 35768 ft | 493 kts | 131° |
| 2026-05-08 02:33 | 37.29149 | -97.72428 | 35284 ft | 492 kts | 131° |
| 2026-05-08 02:33 | 37.27199 | -97.68879 | 34776 ft | 491 kts | 131° |
| 2026-05-08 02:33 | 37.25256 | -97.65346 | 34272 ft | 490 kts | 130° |
| 2026-05-08 02:33 | 37.23337 | -97.61858 | 33729 ft | 489 kts | 130° |
| 2026-05-08 02:34 | 37.21416 | -97.58379 | 33212 ft | 486 kts | 130° |
| 2026-05-08 02:34 | 37.19486 | -97.54891 | 32677 ft | 484 kts | 130° |
| 2026-05-08 02:34 | 37.17567 | -97.51424 | 32177 ft | 481 kts | 130° |
| 2026-05-08 02:34 | 37.15682 | -97.48015 | 31677 ft | 479 kts | 130° |
| 2026-05-08 02:35 | 37.13780 | -97.44574 | 31181 ft | 476 kts | 130° |
| 2026-05-08 02:35 | 37.11886 | -97.41157 | 30699 ft | 473 kts | 129° |
| 2026-05-08 02:35 | 37.10031 | -97.37816 | 30228 ft | 471 kts | 129° |
| 2026-05-08 02:35 | 37.08162 | -97.34451 | 29730 ft | 468 kts | 129° |
| 2026-05-08 02:36 | 37.06299 | -97.31106 | 29265 ft | 463 kts | 129° |
| 2026-05-08 02:36 | 37.04463 | -97.27811 | 28833 ft | 458 kts | 129° |
| 2026-05-08 02:36 | 37.02666 | -97.24590 | 28400 ft | 454 kts | 129° |
| 2026-05-08 02:36 | 37.00863 | -97.21362 | 27951 ft | 451 kts | 129° |
| 2026-05-08 02:37 | 36.99076 | -97.18161 | 27535 ft | 447 kts | 129° |
| 2026-05-08 02:37 | 36.97300 | -97.14982 | 27090 ft | 444 kts | 129° |
| 2026-05-08 02:37 | 36.95524 | -97.11808 | 26645 ft | 442 kts | 129° |
| 2026-05-08 02:37 | 36.93782 | -97.08698 | 26209 ft | 441 kts | 129° |
| 2026-05-08 02:38 | 36.92023 | -97.05558 | 25748 ft | 440 kts | 129° |
| 2026-05-08 02:38 | 36.90268 | -97.02426 | 25284 ft | 439 kts | 129° |
| 2026-05-08 02:38 | 36.88513 | -96.99298 | 24801 ft | 439 kts | 129° |
| 2026-05-08 02:38 | 36.86763 | -96.96183 | 24360 ft | 438 kts | 129° |
| 2026-05-08 02:39 | 36.85018 | -96.93085 | 23865 ft | 437 kts | 129° |
| 2026-05-08 02:39 | 36.83280 | -96.89999 | 23580 ft | 431 kts | 129° |
| 2026-05-08 02:39 | 36.81553 | -96.86932 | 23066 ft | 429 kts | 129° |
| 2026-05-08 02:39 | 36.79840 | -96.83890 | 22624 ft | 426 kts | 129° |
| 2026-05-08 02:40 | 36.78144 | -96.80877 | 22117 ft | 423 kts | 129° |
| 2026-05-08 02:40 | 36.76459 | -96.77888 | 21660 ft | 420 kts | 128° |
| 2026-05-08 02:40 | 36.74784 | -96.74928 | 21207 ft | 416 kts | 128° |
| 2026-05-08 02:40 | 36.73120 | -96.71996 | 20758 ft | 412 kts | 128° |
| 2026-05-08 02:41 | 36.71467 | -96.69089 | 20325 ft | 409 kts | 128° |
| 2026-05-08 02:41 | 36.69833 | -96.66211 | 19895 ft | 405 kts | 128° |
| 2026-05-08 02:41 | 36.68211 | -96.63349 | 19466 ft | 402 kts | 128° |
| 2026-05-08 02:41 | 36.66607 | -96.60520 | 19046 ft | 398 kts | 128° |
| 2026-05-08 02:42 | 36.65017 | -96.57716 | 18636 ft | 395 kts | 128° |
| 2026-05-08 02:42 | 36.63431 | -96.54928 | 18216 ft | 392 kts | 128° |
| 2026-05-08 02:42 | 36.61865 | -96.52181 | 17757 ft | 388 kts | 128° |
| 2026-05-08 02:42 | 36.60310 | -96.49448 | 17308 ft | 384 kts | 127° |
| 2026-05-08 02:43 | 36.58792 | -96.46781 | 16864 ft | 381 kts | 127° |
| 2026-05-08 02:43 | 36.57269 | -96.44107 | 16418 ft | 377 kts | 127° |
| 2026-05-08 02:43 | 36.55755 | -96.41460 | 15967 ft | 374 kts | 127° |
| 2026-05-08 02:43 | 36.54252 | -96.38837 | 15556 ft | 370 kts | 127° |
| 2026-05-08 02:44 | 36.52759 | -96.36240 | 15149 ft | 367 kts | 127° |
| 2026-05-08 02:44 | 36.51286 | -96.33669 | 14735 ft | 364 kts | 127° |
| 2026-05-08 02:44 | 36.49827 | -96.31120 | 14330 ft | 360 kts | 127° |
| 2026-05-08 02:44 | 36.48383 | -96.28594 | 13934 ft | 357 kts | 127° |
| 2026-05-08 02:45 | 36.46994 | -96.26059 | 13634 ft | 351 kts | 120° |
| 2026-05-08 02:45 | 36.46253 | -96.23247 | 13507 ft | 339 kts | 97° |
| 2026-05-08 02:45 | 36.46069 | -96.20365 | 13275 ft | 331 kts | 92° |
| 2026-05-08 02:45 | 36.45946 | -96.17528 | 12953 ft | 327 kts | 92° |
| 2026-05-08 02:46 | 36.45903 | -96.15662 | 12731 ft | 325 kts | 86° |
| 2026-05-08 02:46 | 36.46421 | -96.12987 | 12394 ft | 318 kts | 65° |
| 2026-05-08 02:46 | 36.47323 | -96.10491 | 12051 ft | 315 kts | 62° |
| 2026-05-08 02:46 | 36.48253 | -96.08037 | 11709 ft | 312 kts | 62° |
| 2026-05-08 02:47 | 36.49182 | -96.05603 | 11364 ft | 310 kts | 62° |
| 2026-05-08 02:47 | 36.50106 | -96.03191 | 11029 ft | 308 kts | 62° |
| 2026-05-08 02:47 | 36.51024 | -96.00801 | 10713 ft | 305 kts | 62° |
| 2026-05-08 02:47 | 36.51936 | -95.98432 | 10404 ft | 302 kts | 62° |
| 2026-05-08 02:48 | 36.52545 | -95.95944 | 10085 ft | 303 kts | 84° |
| 2026-05-08 02:48 | 36.52531 | -95.93330 | 9754 ft | 302 kts | 91° |
| 2026-05-08 02:48 | 36.52419 | -95.90736 | 9404 ft | 300 kts | 92° |
| 2026-05-08 02:48 | 36.52297 | -95.88158 | 9064 ft | 297 kts | 92° |
| 2026-05-08 02:49 | 36.52173 | -95.85602 | 8711 ft | 295 kts | 92° |
| 2026-05-08 02:49 | 36.52045 | -95.83066 | 8388 ft | 293 kts | 92° |
| 2026-05-08 02:49 | 36.51916 | -95.80547 | 8063 ft | 291 kts | 92° |
| 2026-05-08 02:49 | 36.51785 | -95.78049 | 7740 ft | 289 kts | 92° |
| 2026-05-08 02:50 | 36.51653 | -95.75567 | 7416 ft | 286 kts | 92° |
| 2026-05-08 02:50 | 36.51520 | -95.73106 | 7100 ft | 284 kts | 91° |
| 2026-05-08 02:50 | 36.51179 | -95.70697 | 6781 ft | 285 kts | 110° |
| 2026-05-08 02:50 | 36.50047 | -95.68709 | 6562 ft | 282 kts | 139° |
| 2026-05-08 02:51 | 36.48341 | -95.67624 | 6436 ft | 273 kts | 168° |
| 2026-05-08 02:51 | 36.46494 | -95.67661 | 6300 ft | 263 kts | 197° |
| 2026-05-08 02:51 | 36.44933 | -95.68754 | 5992 ft | 256 kts | 228° |
| 2026-05-08 02:51 | 36.44052 | -95.70607 | 5702 ft | 248 kts | 258° |
| 2026-05-08 02:52 | 36.43880 | -95.72686 | 5416 ft | 244 kts | 270° |
| 2026-05-08 02:52 | 36.43872 | -95.74785 | 5129 ft | 242 kts | 271° |
| 2026-05-08 02:52 | 36.43902 | -95.76863 | 4865 ft | 239 kts | 271° |
| 2026-05-08 02:52 | 36.43953 | -95.78913 | 4582 ft | 237 kts | 271° |
| 2026-05-08 02:53 | 36.44020 | -95.80951 | 4274 ft | 235 kts | 271° |
| 2026-05-08 02:53 | 36.43996 | -95.82964 | 3954 ft | 233 kts | 256° |
| 2026-05-08 02:53 | 36.43243 | -95.84691 | 3683 ft | 227 kts | 223° |
| 2026-05-08 02:53 | 36.42012 | -95.85801 | 3507 ft | 213 kts | 213° |
| 2026-05-08 02:54 | 36.40748 | -95.86673 | 3200 ft | 203 kts | 200° |
| 2026-05-08 02:54 | 36.39643 | -95.86910 | 3029 ft | 196 kts | 184° |
| 2026-05-08 02:54 | 36.38421 | -95.86983 | 2998 ft | 185 kts | 186° |
| 2026-05-08 02:55 | 36.37133 | -95.87077 | 2989 ft | 180 kts | 185° |
| 2026-05-08 02:55 | 36.34714 | -95.87243 | 2934 ft | 172 kts | 186° |
| 2026-05-08 02:55 | 36.33520 | -95.87323 | 2779 ft | 171 kts | 185° |
| 2026-05-08 02:56 | 36.32334 | -95.87402 | 2589 ft | 170 kts | 185° |
| 2026-05-08 02:56 | 36.31155 | -95.87481 | 2391 ft | 169 kts | 185° |
| 2026-05-08 02:56 | 36.29984 | -95.87457 | 2201 ft | 169 kts | 174° |
| 2026-05-08 02:56 | 36.28834 | -95.87380 | 2085 ft | 160 kts | 185° |
| 2026-05-08 02:57 | 36.27786 | -95.87610 | 1983 ft | 145 kts | 194° |
| 2026-05-08 02:57 | 36.26816 | -95.87789 | 1766 ft | 140 kts | 183° |
| 2026-05-08 02:57 | 36.25865 | -95.87787 | 1549 ft | 132 kts | 181° |
| 2026-05-08 02:57 | 36.24954 | -95.87849 | 1325 ft | 132 kts | 186° |
| 2026-05-08 02:58 | 36.24043 | -95.87979 | 1176 ft | 130 kts | 183° |
| 2026-05-08 02:58 | 36.23141 | -95.88019 | 992 ft | 130 kts | 184° |
| 2026-05-08 02:58 | 36.22256 | -95.88091 | 856 ft | 127 kts | 184° |
| 2026-05-08 02:58 | 36.21390 | -95.88137 | 715 ft | 124 kts | 182° |
| 2026-05-08 02:59 | 36.20592 | -95.88185 | 666 ft | 101 kts | 184° |
| 2026-05-08 02:59 | 36.20012 | -95.88224 | 668 ft | 69 kts | 182° |
| 2026-05-08 02:59 | 36.19608 | -95.88248 | 671 ft | 49 kts | 184° |
| 2026-05-08 02:59 | 36.19345 | -95.88272 | 668 ft | 23 kts | 189° |
| 2026-05-08 03:00 | 36.19209 | -95.88351 | 666 ft | 13 kts | 213° |
| 2026-05-08 03:00 | 36.19148 | -95.88401 | 668 ft | 11 kts | 212° |
| 2026-05-08 03:00 | 36.19131 | -95.88483 | 666 ft | 12 kts | 299° |
| 2026-05-08 03:00 | 36.19186 | -95.88576 | 667 ft | 14 kts | 308° |
| 2026-05-08 03:01 | 36.19241 | -95.88665 | 668 ft | 11 kts | 307° |
| 2026-05-08 03:01 | 36.19237 | -95.88739 | 667 ft | 11 kts | 208° |
| 2026-05-08 03:01 | 36.19194 | -95.88776 | 666 ft | 0 kts | 216° |
| 2026-05-08 03:01 | 36.19187 | -95.88783 | 668 ft | 2 kts | 216° |
| 2026-05-08 03:02 | 36.19172 | -95.88800 | 668 ft | 4 kts | 236° |
| 2026-05-08 03:02 | 36.19167 | -95.88837 | 668 ft | 5 kts | 286° |
| 2026-05-08 03:02 | 36.19189 | -95.88871 | 668 ft | 4 kts | 309° |
| 2026-05-08 03:02 | 36.19195 | -95.88880 | 668 ft | 0 kts | 307° |